Peachtree City, GA

5:17 PM EDT on September 01, 2014 (GMT -0400)
Peachtree City-Falcon | Change Station
CLOSE
Current Station
Airport
Location: Peachtree City,
Elevation: 807 ft
Nearby Weather Stations

Elev 807 ft 33.36 °N, 84.57 °W | Updated 14 minutes ago

Light Rain
Light Rain
81 °F
Feels Like 87 °F
N
8
Wind Variable Wind from NW

Today
High -- | Low -- °F
--% Chance of Precip.
Yesterday
High -- | Low -- °F
Precip. -- in
7:12 AM 8:03 PM
Waxing Crescent, 44% visible
Pressure 30.09 in
Visibility 9.0 miles
Clouds Few 5500 ft
Few 7000 ft
Mostly Cloudy 12000 ft
Heat Index 87 °F
Dew Point 75 °F
Humidity 82%
Rainfall 0.00 in
Snow Depth Not available.
UV 2 out of 12
Pollen 9.00 out of 12
Air Quality Not available.
Flu Activity Not available.
SPECI KFFC 012103Z AUTO 31007KT 9SM -RA FEW055 FEW070 BKN120 27/24 A3009 RMK AO2 LTG DSNT ALQDS RAB00 P0000 T02720239

More Conditions Fewer Conditions

Pressure 30.09 in
Visibility 9.0 miles
Clouds Few 5500 ft
Few 7000 ft
Mostly Cloudy 12000 ft
Heat Index 87 °F
Dew Point 75 °F
Humidity 82%
Rainfall 0.00 in
Snow Depth Not available.
UV 2 out of 12
Pollen 9.00 out of 12
Air Quality Not available.
Flu Activity Not available.
SPECI KFFC 012103Z AUTO 31007KT 9SM -RA FEW055 FEW070 BKN120 27/24 A3009 RMK AO2 LTG DSNT ALQDS RAB00 P0000 T02720239

More Conditions Fewer Conditions

10-Day Weather Forecast

Almanac

Astronomy

Sep. 01, 2014 Rise Set
Actual Time 7:12 AM EDT 8:03 PM EDT
Civil Twilight 6:47 AM EDT 8:28 PM EDT
Nautical Twilight 6:17 AM EDT 8:58 PM EDT
Astronomical Twilight 5:46 AM EDT 9:29 PM EDT
Moon 1:37 PM EDT No Moon Set
Length of Visible Light 13h 41m
Length of Day
12h 51m
Tomorrow will be 1m 58s shorter.
Waxing Crescent, 44% of the Moon is Illuminated
Today
Waxing Crescent
Sep 2
First Quarter
Sep 8
Full
Sep 15
Last Quarter
Sep 24
New

Today's Extremes

State Highs State Lows

Community

WunderPhotos

Upload Photos

1,749,409 photos uploaded!

WunderBlogs® & News

Nearby

Air Quality

  Air Quality AQ Index Pollutant
Monday Moderate
PM2.5
Monday Good
OZONE
Tuesday Moderate
OZONE
Tuesday Moderate
PM2.5

Snow Depth

Station Depth Elevation
No new snow has been reported.

Earthquake Activity

City Distance Mag. Time & Date
No recent earthquake activity has been reported nearby.
Minimum magnitude displayed is 2.5.

Coastal Water Temperatures

Place Temperature
No Stations Reporting

Nearby Weather Stations